sensor_id;sensor_type;location;lat;lon;timestamp;P1;durP1;ratioP1;P2;durP2;ratioP2
20671;SDS011;10495;50.922;4.760;2023-07-31T00:02:00;9.97;;;4.33;;
20671;SDS011;10495;50.922;4.760;2023-07-31T00:04:26;13.53;;;4.83;;
20671;SDS011;10495;50.922;4.760;2023-07-31T00:06:52;10.67;;;3.83;;
20671;SDS011;10495;50.922;4.760;2023-07-31T00:09:17;13.57;;;4.93;;
20671;SDS011;10495;50.922;4.760;2023-07-31T00:11:43;11.03;;;4.63;;
20671;SDS011;10495;50.922;4.760;2023-07-31T00:14:09;8.77;;;4.10;;
20671;SDS011;10495;50.922;4.760;2023-07-31T00:16:34;9.53;;;3.80;;
20671;SDS011;10495;50.922;4.760;2023-07-31T00:19:00;7.67;;;3.73;;
20671;SDS011;10495;50.922;4.760;2023-07-31T00:21:25;12.87;;;3.70;;
20671;SDS011;10495;50.922;4.760;2023-07-31T00:23:51;12.40;;;3.70;;
20671;SDS011;10495;50.922;4.760;2023-07-31T00:26:17;12.00;;;4.90;;
20671;SDS011;10495;50.922;4.760;2023-07-31T00:28:42;10.83;;;4.33;;
20671;SDS011;10495;50.922;4.760;2023-07-31T00:31:08;8.27;;;4.13;;
20671;SDS011;10495;50.922;4.760;2023-07-31T00:33:34;10.60;;;4.50;;
20671;SDS011;10495;50.922;4.760;2023-07-31T00:36:01;6.87;;;3.80;;
20671;SDS011;10495;50.922;4.760;2023-07-31T00:38:27;13.83;;;3.87;;
20671;SDS011;10495;50.922;4.760;2023-07-31T00:40:53;12.80;;;4.40;;
20671;SDS011;10495;50.922;4.760;2023-07-31T00:43:18;12.40;;;4.30;;
20671;SDS011;10495;50.922;4.760;2023-07-31T00:45:44;10.23;;;4.63;;
20671;SDS011;10495;50.922;4.760;2023-07-31T00:48:10;8.93;;;4.00;;
20671;SDS011;10495;50.922;4.760;2023-07-31T00:50:36;11.33;;;3.93;;
20671;SDS011;10495;50.922;4.760;2023-07-31T00:53:02;11.03;;;4.20;;
20671;SDS011;10495;50.922;4.760;2023-07-31T00:55:29;11.87;;;4.63;;
20671;SDS011;10495;50.922;4.760;2023-07-31T00:57:55;10.77;;;4.63;;
20671;SDS011;10495;50.922;4.760;2023-07-31T01:00:21;10.37;;;4.43;;
20671;SDS011;10495;50.922;4.760;2023-07-31T01:02:47;11.63;;;4.43;;
20671;SDS011;10495;50.922;4.760;2023-07-31T01:05:14;11.97;;;5.13;;
20671;SDS011;10495;50.922;4.760;2023-07-31T01:07:45;8.67;;;3.93;;
20671;SDS011;10495;50.922;4.760;2023-07-31T01:10:26;10.73;;;4.90;;
20671;SDS011;10495;50.922;4.760;2023-07-31T01:12:59;11.50;;;4.70;;
20671;SDS011;10495;50.922;4.760;2023-07-31T01:15:25;13.70;;;4.47;;
20671;SDS011;10495;50.922;4.760;2023-07-31T01:17:51;11.93;;;4.83;;
20671;SDS011;10495;50.922;4.760;2023-07-31T01:20:17;10.83;;;5.13;;
20671;SDS011;10495;50.922;4.760;2023-07-31T01:25:44;10.97;;;4.27;;
20671;SDS011;10495;50.922;4.760;2023-07-31T01:28:39;10.90;;;4.37;;
20671;SDS011;10495;50.922;4.760;2023-07-31T01:31:23;12.03;;;3.90;;
20671;SDS011;10495;50.922;4.760;2023-07-31T01:33:50;9.97;;;4.47;;
20671;SDS011;10495;50.922;4.760;2023-07-31T01:36:19;10.63;;;3.90;;
20671;SDS011;10495;50.922;4.760;2023-07-31T01:38:44;9.90;;;4.07;;
20671;SDS011;10495;50.922;4.760;2023-07-31T01:41:10;10.63;;;3.60;;
20671;SDS011;10495;50.922;4.760;2023-07-31T01:43:36;13.03;;;5.07;;
20671;SDS011;10495;50.922;4.760;2023-07-31T01:46:01;11.40;;;4.83;;
20671;SDS011;10495;50.922;4.760;2023-07-31T01:48:27;14.37;;;5.27;;
20671;SDS011;10495;50.922;4.760;2023-07-31T01:50:53;7.83;;;4.67;;
20671;SDS011;10495;50.922;4.760;2023-07-31T01:53:18;11.37;;;4.57;;
20671;SDS011;10495;50.922;4.760;2023-07-31T01:55:44;11.23;;;4.27;;
20671;SDS011;10495;50.922;4.760;2023-07-31T01:58:09;6.67;;;3.60;;
20671;SDS011;10495;50.922;4.760;2023-07-31T02:00:35;7.47;;;3.60;;
20671;SDS011;10495;50.922;4.760;2023-07-31T02:03:01;11.77;;;4.83;;
20671;SDS011;10495;50.922;4.760;2023-07-31T02:05:26;7.60;;;4.30;;
20671;SDS011;10495;50.922;4.760;2023-07-31T02:07:52;12.30;;;4.63;;
20671;SDS011;10495;50.922;4.760;2023-07-31T02:10:17;9.27;;;4.17;;
20671;SDS011;10495;50.922;4.760;2023-07-31T02:12:43;9.37;;;5.13;;
20671;SDS011;10495;50.922;4.760;2023-07-31T02:15:09;9.13;;;4.57;;
20671;SDS011;10495;50.922;4.760;2023-07-31T02:17:34;9.13;;;4.57;;
20671;SDS011;10495;50.922;4.760;2023-07-31T02:20:00;10.70;;;5.00;;
20671;SDS011;10495;50.922;4.760;2023-07-31T02:22:26;9.73;;;4.57;;
20671;SDS011;10495;50.922;4.760;2023-07-31T02:24:51;11.57;;;4.77;;
20671;SDS011;10495;50.922;4.760;2023-07-31T02:27:17;13.97;;;4.23;;
20671;SDS011;10495;50.922;4.760;2023-07-31T02:29:42;9.47;;;5.10;;
20671;SDS011;10495;50.922;4.760;2023-07-31T02:32:08;9.37;;;4.07;;
20671;SDS011;10495;50.922;4.760;2023-07-31T02:34:34;9.33;;;4.17;;
20671;SDS011;10495;50.922;4.760;2023-07-31T02:36:59;8.70;;;4.10;;
20671;SDS011;10495;50.922;4.760;2023-07-31T02:39:25;10.77;;;4.23;;
20671;SDS011;10495;50.922;4.760;2023-07-31T02:41:50;6.20;;;3.53;;
20671;SDS011;10495;50.922;4.760;2023-07-31T02:44:16;8.77;;;4.40;;
20671;SDS011;10495;50.922;4.760;2023-07-31T02:46:42;8.77;;;4.47;;
20671;SDS011;10495;50.922;4.760;2023-07-31T02:49:07;16.70;;;4.90;;
20671;SDS011;10495;50.922;4.760;2023-07-31T02:51:33;8.47;;;3.93;;
20671;SDS011;10495;50.922;4.760;2023-07-31T02:53:58;7.00;;;4.37;;
20671;SDS011;10495;50.922;4.760;2023-07-31T02:56:24;7.63;;;4.47;;
20671;SDS011;10495;50.922;4.760;2023-07-31T02:58:50;7.93;;;4.57;;
20671;SDS011;10495;50.922;4.760;2023-07-31T03:01:15;8.07;;;4.37;;
20671;SDS011;10495;50.922;4.760;2023-07-31T03:03:41;8.40;;;4.53;;
20671;SDS011;10495;50.922;4.760;2023-07-31T03:06:07;7.57;;;4.67;;
20671;SDS011;10495;50.922;4.760;2023-07-31T03:08:33;9.03;;;4.57;;
20671;SDS011;10495;50.922;4.760;2023-07-31T03:10:58;8.37;;;4.27;;
20671;SDS011;10495;50.922;4.760;2023-07-31T03:13:24;10.33;;;4.30;;
20671;SDS011;10495;50.922;4.760;2023-07-31T03:15:50;5.87;;;4.17;;
20671;SDS011;10495;50.922;4.760;2023-07-31T03:18:15;8.77;;;4.60;;
20671;SDS011;10495;50.922;4.760;2023-07-31T03:20:42;7.77;;;3.90;;
20671;SDS011;10495;50.922;4.760;2023-07-31T03:23:09;8.10;;;4.87;;
20671;SDS011;10495;50.922;4.760;2023-07-31T03:25:34;6.40;;;4.07;;
20671;SDS011;10495;50.922;4.760;2023-07-31T03:28:00;8.03;;;4.23;;
20671;SDS011;10495;50.922;4.760;2023-07-31T03:30:26;8.70;;;4.73;;
20671;SDS011;10495;50.922;4.760;2023-07-31T03:32:52;7.17;;;4.10;;
20671;SDS011;10495;50.922;4.760;2023-07-31T03:35:17;9.03;;;4.47;;
20671;SDS011;10495;50.922;4.760;2023-07-31T03:37:43;9.77;;;4.53;;
20671;SDS011;10495;50.922;4.760;2023-07-31T03:40:09;6.27;;;4.33;;
20671;SDS011;10495;50.922;4.760;2023-07-31T03:42:35;8.57;;;4.13;;
20671;SDS011;10495;50.922;4.760;2023-07-31T03:45:01;6.13;;;3.60;;
20671;SDS011;10495;50.922;4.760;2023-07-31T03:47:26;6.83;;;4.70;;
20671;SDS011;10495;50.922;4.760;2023-07-31T03:49:52;8.37;;;4.37;;
20671;SDS011;10495;50.922;4.760;2023-07-31T03:52:18;7.33;;;4.07;;
20671;SDS011;10495;50.922;4.760;2023-07-31T03:54:43;7.50;;;3.70;;
20671;SDS011;10495;50.922;4.760;2023-07-31T03:57:12;6.50;;;3.63;;
20671;SDS011;10495;50.922;4.760;2023-07-31T03:59:37;7.27;;;3.77;;
20671;SDS011;10495;50.922;4.760;2023-07-31T04:02:06;6.70;;;4.17;;
20671;SDS011;10495;50.922;4.760;2023-07-31T04:04:31;6.77;;;3.87;;
20671;SDS011;10495;50.922;4.760;2023-07-31T04:06:57;6.57;;;4.27;;
20671;SDS011;10495;50.922;4.760;2023-07-31T04:09:23;6.97;;;4.10;;
20671;SDS011;10495;50.922;4.760;2023-07-31T04:11:48;6.57;;;3.97;;
20671;SDS011;10495;50.922;4.760;2023-07-31T04:14:14;6.57;;;3.97;;
20671;SDS011;10495;50.922;4.760;2023-07-31T04:16:40;6.60;;;4.40;;
20671;SDS011;10495;50.922;4.760;2023-07-31T04:19:05;5.37;;;3.70;;
20671;SDS011;10495;50.922;4.760;2023-07-31T04:21:31;8.10;;;3.93;;
20671;SDS011;10495;50.922;4.760;2023-07-31T04:23:57;6.83;;;3.63;;
20671;SDS011;10495;50.922;4.760;2023-07-31T04:26:23;8.50;;;4.00;;
20671;SDS011;10495;50.922;4.760;2023-07-31T04:28:49;5.50;;;3.60;;
20671;SDS011;10495;50.922;4.760;2023-07-31T04:31:14;6.67;;;4.10;;
20671;SDS011;10495;50.922;4.760;2023-07-31T04:33:40;6.30;;;3.97;;
20671;SDS011;10495;50.922;4.760;2023-07-31T04:36:06;8.67;;;4.13;;
20671;SDS011;10495;50.922;4.760;2023-07-31T04:38:31;8.20;;;4.07;;
20671;SDS011;10495;50.922;4.760;2023-07-31T04:40:57;6.47;;;3.80;;
20671;SDS011;10495;50.922;4.760;2023-07-31T04:43:23;7.57;;;4.40;;
20671;SDS011;10495;50.922;4.760;2023-07-31T04:45:48;5.87;;;3.97;;
20671;SDS011;10495;50.922;4.760;2023-07-31T04:48:15;7.27;;;3.83;;
20671;SDS011;10495;50.922;4.760;2023-07-31T04:50:41;7.43;;;4.40;;
20671;SDS011;10495;50.922;4.760;2023-07-31T04:53:06;4.90;;;3.47;;
20671;SDS011;10495;50.922;4.760;2023-07-31T04:55:32;7.13;;;4.23;;
20671;SDS011;10495;50.922;4.760;2023-07-31T04:57:58;6.67;;;3.70;;
20671;SDS011;10495;50.922;4.760;2023-07-31T05:00:24;6.87;;;4.77;;
20671;SDS011;10495;50.922;4.760;2023-07-31T05:02:50;7.27;;;4.10;;
20671;SDS011;10495;50.922;4.760;2023-07-31T05:05:15;8.00;;;3.87;;
20671;SDS011;10495;50.922;4.760;2023-07-31T05:07:41;6.60;;;3.87;;
20671;SDS011;10495;50.922;4.760;2023-07-31T05:10:07;5.90;;;3.40;;
20671;SDS011;10495;50.922;4.760;2023-07-31T05:12:34;7.97;;;3.60;;
20671;SDS011;10495;50.922;4.760;2023-07-31T05:14:59;6.77;;;4.10;;
20671;SDS011;10495;50.922;4.760;2023-07-31T05:17:25;10.23;;;4.00;;
20671;SDS011;10495;50.922;4.760;2023-07-31T05:19:50;5.87;;;3.97;;
20671;SDS011;10495;50.922;4.760;2023-07-31T05:22:16;6.00;;;3.77;;
20671;SDS011;10495;50.922;4.760;2023-07-31T05:24:42;5.83;;;3.37;;
20671;SDS011;10495;50.922;4.760;2023-07-31T05:27:07;7.33;;;3.83;;
20671;SDS011;10495;50.922;4.760;2023-07-31T05:29:34;8.20;;;3.67;;
20671;SDS011;10495;50.922;4.760;2023-07-31T05:32:00;6.10;;;3.97;;
20671;SDS011;10495;50.922;4.760;2023-07-31T05:34:26;5.93;;;3.50;;
20671;SDS011;10495;50.922;4.760;2023-07-31T05:36:51;6.53;;;3.47;;
20671;SDS011;10495;50.922;4.760;2023-07-31T05:39:17;7.67;;;3.53;;
20671;SDS011;10495;50.922;4.760;2023-07-31T05:41:44;7.03;;;3.50;;
20671;SDS011;10495;50.922;4.760;2023-07-31T05:44:10;6.57;;;3.57;;
20671;SDS011;10495;50.922;4.760;2023-07-31T05:46:36;5.93;;;3.53;;
20671;SDS011;10495;50.922;4.760;2023-07-31T05:49:01;6.43;;;3.50;;
20671;SDS011;10495;50.922;4.760;2023-07-31T05:51:27;7.07;;;3.80;;
20671;SDS011;10495;50.922;4.760;2023-07-31T05:53:53;6.27;;;4.17;;
20671;SDS011;10495;50.922;4.760;2023-07-31T05:56:19;6.40;;;3.60;;
20671;SDS011;10495;50.922;4.760;2023-07-31T05:58:44;5.77;;;3.47;;
20671;SDS011;10495;50.922;4.760;2023-07-31T06:01:10;6.20;;;3.40;;
20671;SDS011;10495;50.922;4.760;2023-07-31T06:03:35;6.53;;;4.00;;
20671;SDS011;10495;50.922;4.760;2023-07-31T06:06:01;5.20;;;3.40;;
20671;SDS011;10495;50.922;4.760;2023-07-31T06:08:27;4.80;;;3.73;;
20671;SDS011;10495;50.922;4.760;2023-07-31T06:10:52;4.27;;;3.40;;
20671;SDS011;10495;50.922;4.760;2023-07-31T06:13:18;7.83;;;3.83;;
20671;SDS011;10495;50.922;4.760;2023-07-31T06:15:44;8.30;;;3.27;;
20671;SDS011;10495;50.922;4.760;2023-07-31T06:18:10;5.50;;;3.63;;
20671;SDS011;10495;50.922;4.760;2023-07-31T06:20:35;9.33;;;4.03;;
20671;SDS011;10495;50.922;4.760;2023-07-31T06:23:01;11.43;;;4.13;;
20671;SDS011;10495;50.922;4.760;2023-07-31T06:25:27;6.60;;;3.73;;
20671;SDS011;10495;50.922;4.760;2023-07-31T06:27:53;11.07;;;3.40;;
20671;SDS011;10495;50.922;4.760;2023-07-31T06:30:18;4.90;;;3.33;;
20671;SDS011;10495;50.922;4.760;2023-07-31T06:32:44;6.90;;;3.80;;
20671;SDS011;10495;50.922;4.760;2023-07-31T06:35:10;5.80;;;3.43;;
20671;SDS011;10495;50.922;4.760;2023-07-31T06:37:35;7.63;;;4.07;;
20671;SDS011;10495;50.922;4.760;2023-07-31T06:40:01;8.50;;;3.60;;
20671;SDS011;10495;50.922;4.760;2023-07-31T06:42:27;4.23;;;3.20;;
20671;SDS011;10495;50.922;4.760;2023-07-31T06:44:52;7.37;;;3.83;;
20671;SDS011;10495;50.922;4.760;2023-07-31T06:47:18;6.33;;;3.43;;
20671;SDS011;10495;50.922;4.760;2023-07-31T06:49:44;5.53;;;3.20;;
20671;SDS011;10495;50.922;4.760;2023-07-31T06:52:10;4.13;;;3.37;;
20671;SDS011;10495;50.922;4.760;2023-07-31T06:54:36;8.63;;;3.10;;
20671;SDS011;10495;50.922;4.760;2023-07-31T06:57:01;6.10;;;3.37;;
20671;SDS011;10495;50.922;4.760;2023-07-31T06:59:28;6.00;;;3.50;;
20671;SDS011;10495;50.922;4.760;2023-07-31T07:01:54;7.57;;;3.83;;
20671;SDS011;10495;50.922;4.760;2023-07-31T07:04:20;6.43;;;3.80;;
20671;SDS011;10495;50.922;4.760;2023-07-31T07:06:45;4.90;;;3.27;;
20671;SDS011;10495;50.922;4.760;2023-07-31T07:09:11;8.20;;;3.47;;
20671;SDS011;10495;50.922;4.760;2023-07-31T07:11:36;7.27;;;3.63;;
20671;SDS011;10495;50.922;4.760;2023-07-31T07:14:02;6.33;;;3.30;;
20671;SDS011;10495;50.922;4.760;2023-07-31T07:16:28;7.40;;;3.30;;
20671;SDS011;10495;50.922;4.760;2023-07-31T07:18:54;8.13;;;3.40;;
20671;SDS011;10495;50.922;4.760;2023-07-31T07:21:19;8.47;;;3.63;;
20671;SDS011;10495;50.922;4.760;2023-07-31T07:23:45;4.47;;;3.13;;
20671;SDS011;10495;50.922;4.760;2023-07-31T07:26:10;5.90;;;3.13;;
20671;SDS011;10495;50.922;4.760;2023-07-31T07:28:36;8.27;;;3.67;;
20671;SDS011;10495;50.922;4.760;2023-07-31T07:31:02;4.70;;;3.30;;
20671;SDS011;10495;50.922;4.760;2023-07-31T07:33:28;5.53;;;3.30;;
20671;SDS011;10495;50.922;4.760;2023-07-31T07:35:54;6.77;;;3.30;;
20671;SDS011;10495;50.922;4.760;2023-07-31T07:38:19;5.60;;;3.33;;
20671;SDS011;10495;50.922;4.760;2023-07-31T07:40:45;3.63;;;2.87;;
20671;SDS011;10495;50.922;4.760;2023-07-31T07:43:15;6.57;;;3.37;;
20671;SDS011;10495;50.922;4.760;2023-07-31T07:45:41;7.23;;;3.03;;
20671;SDS011;10495;50.922;4.760;2023-07-31T07:48:06;7.17;;;2.93;;
20671;SDS011;10495;50.922;4.760;2023-07-31T07:50:32;6.87;;;3.47;;
20671;SDS011;10495;50.922;4.760;2023-07-31T07:52:58;5.87;;;3.50;;
20671;SDS011;10495;50.922;4.760;2023-07-31T07:55:23;5.90;;;3.17;;
20671;SDS011;10495;50.922;4.760;2023-07-31T07:57:49;5.83;;;2.90;;
20671;SDS011;10495;50.922;4.760;2023-07-31T08:00:15;3.63;;;2.70;;
20671;SDS011;10495;50.922;4.760;2023-07-31T08:02:42;5.93;;;3.47;;
20671;SDS011;10495;50.922;4.760;2023-07-31T08:05:08;4.63;;;2.70;;
20671;SDS011;10495;50.922;4.760;2023-07-31T08:07:34;5.63;;;2.93;;
20671;SDS011;10495;50.922;4.760;2023-07-31T08:10:00;4.43;;;3.40;;
20671;SDS011;10495;50.922;4.760;2023-07-31T08:12:25;6.13;;;2.40;;
20671;SDS011;10495;50.922;4.760;2023-07-31T08:14:51;6.40;;;3.03;;
20671;SDS011;10495;50.922;4.760;2023-07-31T08:17:17;8.43;;;3.60;;
20671;SDS011;10495;50.922;4.760;2023-07-31T08:19:42;4.70;;;2.60;;
20671;SDS011;10495;50.922;4.760;2023-07-31T08:22:09;6.10;;;2.50;;
20671;SDS011;10495;50.922;4.760;2023-07-31T08:24:35;6.83;;;3.00;;
20671;SDS011;10495;50.922;4.760;2023-07-31T08:27:00;4.93;;;3.13;;
20671;SDS011;10495;50.922;4.760;2023-07-31T08:29:26;6.70;;;2.90;;
20671;SDS011;10495;50.922;4.760;2023-07-31T08:31:51;3.73;;;2.40;;
20671;SDS011;10495;50.922;4.760;2023-07-31T08:34:17;5.80;;;3.57;;
20671;SDS011;10495;50.922;4.760;2023-07-31T08:36:43;7.73;;;3.20;;
20671;SDS011;10495;50.922;4.760;2023-07-31T08:39:08;4.77;;;2.70;;
20671;SDS011;10495;50.922;4.760;2023-07-31T08:41:38;4.57;;;2.80;;
20671;SDS011;10495;50.922;4.760;2023-07-31T08:44:04;4.60;;;2.80;;
20671;SDS011;10495;50.922;4.760;2023-07-31T08:46:31;4.43;;;2.80;;
20671;SDS011;10495;50.922;4.760;2023-07-31T08:48:59;4.03;;;2.30;;
20671;SDS011;10495;50.922;4.760;2023-07-31T08:51:25;4.27;;;2.40;;
20671;SDS011;10495;50.922;4.760;2023-07-31T08:53:52;3.83;;;2.30;;
20671;SDS011;10495;50.922;4.760;2023-07-31T08:56:18;5.13;;;2.43;;
20671;SDS011;10495;50.922;4.760;2023-07-31T08:58:44;6.97;;;2.40;;
20671;SDS011;10495;50.922;4.760;2023-07-31T09:01:12;3.77;;;2.20;;
20671;SDS011;10495;50.922;4.760;2023-07-31T09:03:39;4.17;;;2.40;;
20671;SDS011;10495;50.922;4.760;2023-07-31T09:06:06;4.77;;;2.63;;
20671;SDS011;10495;50.922;4.760;2023-07-31T09:08:33;3.97;;;2.50;;
20671;SDS011;10495;50.922;4.760;2023-07-31T09:10:59;4.07;;;2.60;;
20671;SDS011;10495;50.922;4.760;2023-07-31T09:13:28;4.05;;;2.53;;
20671;SDS011;10495;50.922;4.760;2023-07-31T09:15:55;4.13;;;2.30;;
20671;SDS011;10495;50.922;4.760;2023-07-31T09:18:21;6.37;;;2.47;;
20671;SDS011;10495;50.922;4.760;2023-07-31T09:21:00;5.37;;;2.47;;
20671;SDS011;10495;50.922;4.760;2023-07-31T09:23:43;4.93;;;2.67;;
20671;SDS011;10495;50.922;4.760;2023-07-31T09:26:10;4.07;;;2.60;;
20671;SDS011;10495;50.922;4.760;2023-07-31T09:28:36;5.70;;;2.90;;
20671;SDS011;10495;50.922;4.760;2023-07-31T09:31:02;4.67;;;2.53;;
20671;SDS011;10495;50.922;4.760;2023-07-31T09:33:27;5.33;;;2.30;;
20671;SDS011;10495;50.922;4.760;2023-07-31T09:35:53;5.60;;;2.87;;
20671;SDS011;10495;50.922;4.760;2023-07-31T09:38:18;3.53;;;2.47;;
20671;SDS011;10495;50.922;4.760;2023-07-31T09:40:45;3.80;;;2.40;;
20671;SDS011;10495;50.922;4.760;2023-07-31T09:43:18;4.03;;;2.53;;
20671;SDS011;10495;50.922;4.760;2023-07-31T09:45:45;6.67;;;2.80;;
20671;SDS011;10495;50.922;4.760;2023-07-31T09:48:13;7.53;;;2.60;;
20671;SDS011;10495;50.922;4.760;2023-07-31T09:50:47;5.93;;;2.50;;
20671;SDS011;10495;50.922;4.760;2023-07-31T09:53:14;6.53;;;2.77;;
20671;SDS011;10495;50.922;4.760;2023-07-31T09:55:41;6.20;;;3.37;;
20671;SDS011;10495;50.922;4.760;2023-07-31T09:58:08;4.78;;;2.70;;
20671;SDS011;10495;50.922;4.760;2023-07-31T10:00:35;6.93;;;3.20;;
20671;SDS011;10495;50.922;4.760;2023-07-31T10:03:05;5.03;;;2.90;;
20671;SDS011;10495;50.922;4.760;2023-07-31T10:05:36;6.50;;;3.00;;
20671;SDS011;10495;50.922;4.760;2023-07-31T10:08:06;4.50;;;2.80;;
20671;SDS011;10495;50.922;4.760;2023-07-31T10:10:34;4.13;;;2.50;;
20671;SDS011;10495;50.922;4.760;2023-07-31T10:13:01;4.37;;;2.53;;
20671;SDS011;10495;50.922;4.760;2023-07-31T10:15:29;7.18;;;3.28;;
20671;SDS011;10495;50.922;4.760;2023-07-31T10:17:55;11.90;;;6.70;;
20671;SDS011;10495;50.922;4.760;2023-07-31T10:20:23;6.13;;;2.80;;
20671;SDS011;10495;50.922;4.760;2023-07-31T10:22:49;4.17;;;2.80;;
20671;SDS011;10495;50.922;4.760;2023-07-31T10:25:16;9.63;;;3.95;;
20671;SDS011;10495;50.922;4.760;2023-07-31T10:27:44;4.00;;;2.70;;
20671;SDS011;10495;50.922;4.760;2023-07-31T10:30:14;5.13;;;3.43;;
20671;SDS011;10495;50.922;4.760;2023-07-31T10:32:41;6.53;;;2.95;;
20671;SDS011;10495;50.922;4.760;2023-07-31T10:35:09;6.00;;;3.35;;
20671;SDS011;10495;50.922;4.760;2023-07-31T10:37:40;6.10;;;3.37;;
20671;SDS011;10495;50.922;4.760;2023-07-31T10:40:16;6.20;;;3.33;;
20671;SDS011;10495;50.922;4.760;2023-07-31T10:42:52;5.57;;;3.17;;
20671;SDS011;10495;50.922;4.760;2023-07-31T10:45:41;6.68;;;3.35;;
20671;SDS011;10495;50.922;4.760;2023-07-31T10:50:49;7.32;;;3.88;;
20671;SDS011;10495;50.922;4.760;2023-07-31T10:53:26;6.30;;;3.22;;
20671;SDS011;10495;50.922;4.760;2023-07-31T10:56:12;5.20;;;3.25;;
20671;SDS011;10495;50.922;4.760;2023-07-31T10:58:43;6.30;;;3.37;;
20671;SDS011;10495;50.922;4.760;2023-07-31T11:01:11;8.00;;;3.70;;
20671;SDS011;10495;50.922;4.760;2023-07-31T11:03:43;6.72;;;3.28;;
20671;SDS011;10495;50.922;4.760;2023-07-31T11:06:14;7.65;;;3.03;;
20671;SDS011;10495;50.922;4.760;2023-07-31T11:08:44;7.43;;;3.72;;
20671;SDS011;10495;50.922;4.760;2023-07-31T11:11:12;6.03;;;3.40;;
20671;SDS011;10495;50.922;4.760;2023-07-31T11:16:11;8.65;;;3.35;;
20671;SDS011;10495;50.922;4.760;2023-07-31T11:18:39;5.03;;;3.85;;
20671;SDS011;10495;50.922;4.760;2023-07-31T11:21:06;8.50;;;4.28;;
20671;SDS011;10495;50.922;4.760;2023-07-31T11:23:33;6.38;;;3.67;;
20671;SDS011;10495;50.922;4.760;2023-07-31T11:26:01;8.10;;;4.75;;
20671;SDS011;10495;50.922;4.760;2023-07-31T11:28:31;6.00;;;4.05;;
20671;SDS011;10495;50.922;4.760;2023-07-31T11:31:00;8.45;;;4.43;;
20671;SDS011;10495;50.922;4.760;2023-07-31T11:33:26;9.93;;;3.65;;
20671;SDS011;10495;50.922;4.760;2023-07-31T11:35:52;8.73;;;3.95;;
20671;SDS011;10495;50.922;4.760;2023-07-31T11:40:49;8.57;;;4.05;;
20671;SDS011;10495;50.922;4.760;2023-07-31T11:43:14;5.63;;;3.75;;
20671;SDS011;10495;50.922;4.760;2023-07-31T11:45:41;5.05;;;3.33;;
20671;SDS011;10495;50.922;4.760;2023-07-31T11:48:18;8.82;;;3.92;;
20671;SDS011;10495;50.922;4.760;2023-07-31T11:50:44;6.07;;;4.28;;
20671;SDS011;10495;50.922;4.760;2023-07-31T11:53:11;8.65;;;3.50;;
20671;SDS011;10495;50.922;4.760;2023-07-31T11:55:38;8.15;;;4.18;;
20671;SDS011;10495;50.922;4.760;2023-07-31T11:58:04;6.55;;;3.30;;
20671;SDS011;10495;50.922;4.760;2023-07-31T12:00:30;8.00;;;3.65;;
20671;SDS011;10495;50.922;4.760;2023-07-31T12:02:56;7.53;;;3.90;;
20671;SDS011;10495;50.922;4.760;2023-07-31T12:05:22;6.93;;;3.65;;
20671;SDS011;10495;50.922;4.760;2023-07-31T12:07:55;6.15;;;3.80;;
20671;SDS011;10495;50.922;4.760;2023-07-31T12:10:24;6.93;;;3.70;;
20671;SDS011;10495;50.922;4.760;2023-07-31T12:13:04;8.77;;;3.75;;
20671;SDS011;10495;50.922;4.760;2023-07-31T12:15:35;6.53;;;3.55;;
20671;SDS011;10495;50.922;4.760;2023-07-31T12:18:05;6.85;;;3.80;;
20671;SDS011;10495;50.922;4.760;2023-07-31T12:20:35;7.88;;;4.28;;
20671;SDS011;10495;50.922;4.760;2023-07-31T12:23:05;6.95;;;3.95;;
20671;SDS011;10495;50.922;4.760;2023-07-31T12:25:31;5.65;;;3.35;;
20671;SDS011;10495;50.922;4.760;2023-07-31T12:27:58;5.93;;;3.67;;
20671;SDS011;10495;50.922;4.760;2023-07-31T12:30:31;6.40;;;3.22;;
20671;SDS011;10495;50.922;4.760;2023-07-31T12:33:13;4.55;;;3.45;;
20671;SDS011;10495;50.922;4.760;2023-07-31T12:35:46;7.95;;;3.40;;
20671;SDS011;10495;50.922;4.760;2023-07-31T12:38:13;6.63;;;3.20;;
20671;SDS011;10495;50.922;4.760;2023-07-31T12:40:39;6.82;;;4.10;;
20671;SDS011;10495;50.922;4.760;2023-07-31T12:43:06;6.65;;;3.72;;
20671;SDS011;10495;50.922;4.760;2023-07-31T12:45:32;5.75;;;3.35;;
20671;SDS011;10495;50.922;4.760;2023-07-31T12:47:59;5.82;;;4.32;;
20671;SDS011;10495;50.922;4.760;2023-07-31T12:50:25;8.63;;;3.65;;
20671;SDS011;10495;50.922;4.760;2023-07-31T12:52:51;8.50;;;3.65;;
20671;SDS011;10495;50.922;4.760;2023-07-31T12:55:18;7.15;;;4.03;;
20671;SDS011;10495;50.922;4.760;2023-07-31T12:57:43;6.72;;;3.35;;
20671;SDS011;10495;50.922;4.760;2023-07-31T13:00:09;7.95;;;4.00;;
20671;SDS011;10495;50.922;4.760;2023-07-31T13:02:36;7.80;;;4.00;;
20671;SDS011;10495;50.922;4.760;2023-07-31T13:05:02;4.70;;;3.55;;
20671;SDS011;10495;50.922;4.760;2023-07-31T13:07:27;6.13;;;3.97;;
20671;SDS011;10495;50.922;4.760;2023-07-31T13:09:53;7.07;;;3.47;;
20671;SDS011;10495;50.922;4.760;2023-07-31T13:12:19;11.20;;;3.53;;
20671;SDS011;10495;50.922;4.760;2023-07-31T13:14:44;7.32;;;4.20;;
20671;SDS011;10495;50.922;4.760;2023-07-31T13:17:10;6.47;;;3.67;;
20671;SDS011;10495;50.922;4.760;2023-07-31T13:19:35;7.75;;;3.92;;
20671;SDS011;10495;50.922;4.760;2023-07-31T13:22:01;4.70;;;3.63;;
20671;SDS011;10495;50.922;4.760;2023-07-31T13:24:27;5.70;;;4.47;;
20671;SDS011;10495;50.922;4.760;2023-07-31T13:26:52;7.28;;;3.97;;
20671;SDS011;10495;50.922;4.760;2023-07-31T13:29:18;5.65;;;3.67;;
20671;SDS011;10495;50.922;4.760;2023-07-31T13:31:44;7.93;;;3.80;;
20671;SDS011;10495;50.922;4.760;2023-07-31T13:34:09;6.82;;;3.33;;
20671;SDS011;10495;50.922;4.760;2023-07-31T13:36:35;5.68;;;3.50;;
20671;SDS011;10495;50.922;4.760;2023-07-31T13:39:02;4.43;;;3.22;;
20671;SDS011;10495;50.922;4.760;2023-07-31T13:41:28;5.20;;;3.57;;
20671;SDS011;10495;50.922;4.760;2023-07-31T13:43:53;5.30;;;3.57;;
20671;SDS011;10495;50.922;4.760;2023-07-31T13:46:19;7.13;;;3.17;;
20671;SDS011;10495;50.922;4.760;2023-07-31T13:48:45;5.77;;;3.30;;
20671;SDS011;10495;50.922;4.760;2023-07-31T13:51:10;5.47;;;3.23;;
20671;SDS011;10495;50.922;4.760;2023-07-31T13:53:36;10.93;;;4.07;;
20671;SDS011;10495;50.922;4.760;2023-07-31T13:56:01;7.68;;;3.30;;
20671;SDS011;10495;50.922;4.760;2023-07-31T13:58:27;7.47;;;3.07;;
20671;SDS011;10495;50.922;4.760;2023-07-31T14:00:53;5.40;;;3.17;;
20671;SDS011;10495;50.922;4.760;2023-07-31T14:03:18;5.43;;;3.08;;
20671;SDS011;10495;50.922;4.760;2023-07-31T14:05:44;7.03;;;2.90;;
20671;SDS011;10495;50.922;4.760;2023-07-31T14:08:10;4.65;;;2.92;;
20671;SDS011;10495;50.922;4.760;2023-07-31T14:10:35;5.00;;;2.60;;
20671;SDS011;10495;50.922;4.760;2023-07-31T14:13:01;5.00;;;2.97;;
20671;SDS011;10495;50.922;4.760;2023-07-31T14:15:27;4.30;;;2.87;;
20671;SDS011;10495;50.922;4.760;2023-07-31T14:17:53;7.70;;;2.67;;
20671;SDS011;10495;50.922;4.760;2023-07-31T14:20:19;5.13;;;2.50;;
20671;SDS011;10495;50.922;4.760;2023-07-31T14:22:45;3.63;;;2.03;;
20671;SDS011;10495;50.922;4.760;2023-07-31T14:25:10;4.13;;;2.53;;
20671;SDS011;10495;50.922;4.760;2023-07-31T14:27:36;4.93;;;2.40;;
20671;SDS011;10495;50.922;4.760;2023-07-31T14:30:02;4.07;;;2.70;;
20671;SDS011;10495;50.922;4.760;2023-07-31T14:32:28;8.70;;;3.10;;
20671;SDS011;10495;50.922;4.760;2023-07-31T14:34:54;3.60;;;2.53;;
20671;SDS011;10495;50.922;4.760;2023-07-31T14:37:20;6.00;;;2.60;;
20671;SDS011;10495;50.922;4.760;2023-07-31T14:39:47;5.77;;;2.90;;
20671;SDS011;10495;50.922;4.760;2023-07-31T14:42:12;5.67;;;2.67;;
20671;SDS011;10495;50.922;4.760;2023-07-31T14:44:38;4.07;;;2.53;;
20671;SDS011;10495;50.922;4.760;2023-07-31T14:47:04;4.03;;;2.17;;
20671;SDS011;10495;50.922;4.760;2023-07-31T14:49:30;3.17;;;2.30;;
20671;SDS011;10495;50.922;4.760;2023-07-31T14:51:55;3.80;;;2.53;;
20671;SDS011;10495;50.922;4.760;2023-07-31T14:54:21;2.67;;;2.10;;